Time;durP1;ratioP1;P1;durP2;ratioP2;P2;SDS_P1;SDS_P2;PMS_P1;PMS_P2;Temp;Humidity;BMP_temperature;BMP_pressure;BME280_temperature;BME280_humidity;BME280_pressure;Samples;Min_cycle;Max_cycle;Signal;HPM_P1;HPM_P2
2022/09/23 04:00:34;;;;;;;6.77;5.50;;;8.20;99.90;;;;;;6085713;23;20764;31
2022/09/23 04:03:01;;;;;;;8.83;5.90;;;8.20;99.90;;;;;;4926639;29;20561;-73
2022/09/23 04:05:29;;;;;;;6.37;5.27;;;8.20;99.90;;;;;;4928198;29;20462;-73
2022/09/23 04:07:56;;;;;;;6.87;5.90;;;8.20;99.90;;;;;;4928745;29;20466;-74
2022/09/23 04:10:23;;;;;;;5.67;5.13;;;8.10;99.90;;;;;;4928029;29;20842;-75
2022/09/23 04:12:49;;;;;;;6.10;5.50;;;8.10;99.90;;;;;;4928838;29;20469;-74
2022/09/23 04:15:16;;;;;;;6.53;5.43;;;8.10;99.90;;;;;;4928281;29;20463;-74
2022/09/23 04:17:44;;;;;;;7.70;4.80;;;8.10;99.90;;;;;;4928150;29;20466;-74
2022/09/23 04:20:11;;;;;;;6.50;5.03;;;8.10;99.90;;;;;;4928153;29;20470;-74
2022/09/23 04:22:38;;;;;;;6.20;4.50;;;8.10;99.90;;;;;;4928591;29;20475;-75
2022/09/23 04:25:06;;;;;;;6.60;4.90;;;8.10;99.90;;;;;;4927661;29;20498;-74
2022/09/23 04:27:32;;;;;;;5.73;4.73;;;8.10;99.90;;;;;;4928546;29;20825;-75
2022/09/23 04:29:59;;;;;;;5.07;4.57;;;8.10;99.90;;;;;;4928623;29;21008;-74
2022/09/23 04:32:26;;;;;;;6.97;4.40;;;8.00;99.90;;;;;;4927947;29;20483;-74
2022/09/23 04:34:54;;;;;;;5.90;4.50;;;8.00;99.90;;;;;;4928038;29;20808;-75
2022/09/23 04:37:21;;;;;;;6.50;5.00;;;8.00;99.90;;;;;;4928184;29;20829;-67
2022/09/23 04:39:47;;;;;;;5.50;5.00;;;8.00;99.90;;;;;;4928101;29;20580;-66
2022/09/23 04:42:14;;;;;;;5.13;4.20;;;8.00;99.90;;;;;;4928504;29;20488;-66
2022/09/23 04:44:41;;;;;;;5.90;4.80;;;7.90;99.90;;;;;;4928241;29;20493;-80
2022/09/23 04:47:08;;;;;;;8.57;4.83;;;7.90;99.90;;;;;;4931211;29;20530;-79
2022/09/23 04:49:34;;;;;;;5.43;4.93;;;7.90;99.90;;;;;;4931374;29;20473;-81
2022/09/23 04:52:04;;;;;;;5.10;4.60;;;7.90;99.90;;;;;;4930556;29;20486;-80
2022/09/23 04:54:31;;;;;;;5.83;5.20;;;7.90;99.90;;;;;;4929903;29;20463;-80
2022/09/23 04:56:58;;;;;;;6.87;5.60;;;7.90;99.90;;;;;;4931576;29;20496;-80
2022/09/23 04:59:25;;;;;;;6.33;5.67;;;7.90;99.90;;;;;;4931084;29;20469;-79
2022/09/23 05:01:54;;;;;;;5.43;4.77;;;7.80;99.90;;;;;;4931843;29;20862;-81
2022/09/23 05:04:20;;;;;;;7.17;5.10;;;7.80;99.90;;;;;;4932041;29;20505;-80
2022/09/23 05:06:48;;;;;;;5.57;4.77;;;7.80;99.90;;;;;;4934964;29;20461;-79
2022/09/23 05:09:17;;;;;;;6.40;4.87;;;7.80;99.90;;;;;;4937350;29;20466;-81
2022/09/23 05:11:44;;;;;;;10.23;5.53;;;7.70;99.90;;;;;;4938879;29;20475;-81
2022/09/23 05:14:11;;;;;;;8.37;5.40;;;7.70;99.90;;;;;;4935651;29;21006;-81
2022/09/23 05:16:39;;;;;;;7.23;5.53;;;7.70;99.90;;;;;;4934241;29;20492;-83
2022/09/23 05:19:06;;;;;;;8.13;5.10;;;7.70;99.90;;;;;;4931474;29;20470;-81
2022/09/23 05:21:32;;;;;;;7.57;5.80;;;7.70;99.90;;;;;;4931015;29;20803;-81
2022/09/23 05:23:59;;;;;;;9.77;6.23;;;7.70;99.90;;;;;;4931342;29;21017;-82
2022/09/23 05:26:29;;;;;;;5.93;5.23;;;7.70;99.90;;;;;;4932080;29;20466;-81
2022/09/23 05:28:57;;;;;;;6.97;5.50;;;7.80;99.90;;;;;;4932393;29;20465;-81
2022/09/23 05:31:25;;;;;;;6.20;5.50;;;7.70;99.90;;;;;;4932388;29;20482;-81
2022/09/23 05:33:56;;;;;;;10.50;7.50;;;7.80;99.90;;;;;;4933312;29;20458;-81
2022/09/23 05:36:24;;;;;;;10.77;7.53;;;7.80;99.90;;;;;;4933238;29;20840;-81
2022/09/23 05:38:51;;;;;;;8.10;7.27;;;7.80;99.90;;;;;;4932270;29;20466;-80
2022/09/23 05:41:21;;;;;;;7.17;5.80;;;7.70;99.90;;;;;;4932987;29;20482;-80
2022/09/23 05:43:50;;;;;;;6.60;5.83;;;7.70;99.90;;;;;;4931323;29;20466;-80
2022/09/23 05:46:19;;;;;;;6.13;5.43;;;7.70;99.90;;;;;;4930920;29;20450;-79
2022/09/23 05:48:46;;;;;;;6.67;4.90;;;7.70;99.90;;;;;;4931235;29;20951;-78
2022/09/23 05:51:16;;;;;;;5.00;4.50;;;7.70;99.90;;;;;;4934981;29;20497;-80
2022/09/23 05:53:44;;;;;;;6.60;5.43;;;7.70;99.90;;;;;;4935791;29;20506;-80
2022/09/23 05:56:11;;;;;;;8.17;5.47;;;7.70;99.90;;;;;;4933637;29;20458;-80
2022/09/23 05:58:38;;;;;;;8.20;5.30;;;7.80;99.90;;;;;;4933680;29;20462;-80
2022/09/23 06:01:11;;;;;;;9.00;7.10;;;7.80;99.90;;;;;;4934973;29;20498;-81
2022/09/23 06:03:39;;;;;;;7.40;6.60;;;7.80;99.90;;;;;;4935603;29;20475;-81
2022/09/23 06:06:06;;;;;;;9.37;7.30;;;7.90;99.90;;;;;;4934686;29;20877;-81
2022/09/23 06:08:33;;;;;;;17.93;12.20;;;7.80;99.90;;;;;;4934615;29;20461;-80
2022/09/23 06:11:06;;;;;;;9.43;8.50;;;7.80;99.90;;;;;;4934906;29;20549;-80
2022/09/23 06:13:35;;;;;;;9.77;7.33;;;7.80;99.90;;;;;;4934063;29;20458;-78
2022/09/23 06:16:02;;;;;;;7.70;6.50;;;7.80;99.90;;;;;;4934024;29;20557;-78
2022/09/23 06:18:30;;;;;;;6.77;5.77;;;7.80;99.90;;;;;;4934481;29;20831;-79
2022/09/23 06:21:01;;;;;;;10.13;5.90;;;7.80;99.90;;;;;;4931903;29;20482;-80
2022/09/23 06:23:27;;;;;;;7.20;5.50;;;7.80;99.90;;;;;;4931157;29;20447;-79
2022/09/23 06:25:59;;;;;;;8.40;6.20;;;7.90;99.90;;;;;;4930034;29;20502;-79
2022/09/23 06:28:29;;;;;;;8.53;6.00;;;7.90;99.90;;;;;;4931118;29;20473;-80
2022/09/23 06:30:57;;;;;;;7.40;5.90;;;7.90;99.90;;;;;;4931581;29;20524;-79
2022/09/23 06:33:24;;;;;;;10.53;6.27;;;7.80;99.90;;;;;;4930944;29;20470;-80
2022/09/23 06:35:55;;;;;;;8.97;7.40;;;7.80;99.90;;;;;;4929778;29;20455;-79
2022/09/23 06:38:22;;;;;;;6.47;5.80;;;7.90;99.90;;;;;;4931417;29;20466;-81
2022/09/23 06:40:49;;;;;;;9.00;6.67;;;7.90;99.90;;;;;;4931529;29;20754;-79
2022/09/23 06:43:16;;;;;;;10.70;6.37;;;7.90;99.90;;;;;;4934408;29;20466;-80
2022/09/23 06:45:43;;;;;;;7.50;6.00;;;7.90;99.90;;;;;;4932850;29;20509;-80
2022/09/23 06:48:10;;;;;;;8.20;5.70;;;8.00;99.90;;;;;;4931681;29;20469;-79
2022/09/23 06:50:37;;;;;;;11.50;5.77;;;8.00;99.90;;;;;;4930874;29;21002;-81
2022/09/23 06:53:05;;;;;;;6.87;5.83;;;8.10;99.90;;;;;;4930576;29;20469;-79
2022/09/23 06:55:32;;;;;;;9.27;6.10;;;8.10;99.90;;;;;;4930724;29;20458;-79
2022/09/23 06:57:59;;;;;;;9.27;6.67;;;8.20;99.90;;;;;;4930634;29;20458;-80
2022/09/23 07:00:26;;;;;;;13.70;6.90;;;8.30;99.90;;;;;;4930630;29;20769;-79
2022/09/23 07:02:53;;;;;;;9.17;6.23;;;8.30;99.90;;;;;;4931183;29;20502;-79
2022/09/23 07:05:21;;;;;;;9.57;6.53;;;8.30;99.90;;;;;;4930236;29;20502;-79
2022/09/23 07:07:48;;;;;;;10.90;6.50;;;8.40;99.90;;;;;;4930655;29;20601;-79
2022/09/23 07:10:16;;;;;;;13.47;6.70;;;8.50;99.90;;;;;;4931049;29;20471;-81
2022/09/23 07:12:43;;;;;;;9.33;6.40;;;8.50;99.90;;;;;;4932484;29;20462;-77
2022/09/23 07:15:11;;;;;;;6.30;5.70;;;8.60;99.90;;;;;;4934876;29;20458;-79
2022/09/23 07:17:40;;;;;;;9.97;6.50;;;8.60;99.90;;;;;;4935155;29;21006;-79
2022/09/23 07:20:09;;;;;;;10.47;6.90;;;8.60;99.90;;;;;;4935579;29;20469;-79
2022/09/23 07:22:36;;;;;;;11.37;7.30;;;8.70;99.90;;;;;;4934397;29;20493;-79
2022/09/23 07:25:04;;;;;;;11.60;7.27;;;8.80;99.90;;;;;;4934152;29;21046;-79
2022/09/23 07:27:33;;;;;;;9.83;6.77;;;8.90;99.90;;;;;;4936165;29;20908;-79
2022/09/23 07:30:00;;;;;;;14.00;7.23;;;8.90;99.90;;;;;;4931552;29;20549;-78
2022/09/23 07:32:27;;;;;;;9.77;6.80;;;9.00;99.90;;;;;;4929345;29;20503;-79
2022/09/23 07:34:55;;;;;;;9.30;7.73;;;9.10;99.90;;;;;;4928788;29;21002;-78
2022/09/23 07:37:21;;;;;;;11.00;7.40;;;9.20;99.90;;;;;;4929743;29;20808;-79
2022/09/23 07:39:48;;;;;;;16.73;6.47;;;9.20;99.90;;;;;;4930088;29;20486;-78
2022/09/23 07:42:15;;;;;;;10.43;7.00;;;9.30;99.90;;;;;;4929295;29;20482;-79
2022/09/23 07:44:46;;;;;;;6.67;6.07;;;9.40;99.90;;;;;;4928651;29;20498;-80
2022/09/23 07:47:13;;;;;;;7.53;5.93;;;9.50;99.90;;;;;;4929428;29;20443;-78
2022/09/23 07:49:40;;;;;;;5.57;4.83;;;9.70;99.90;;;;;;4929544;29;20470;-79
2022/09/23 07:52:07;;;;;;;6.03;5.27;;;9.80;99.90;;;;;;4929503;29;20852;-79
2022/09/23 07:54:34;;;;;;;7.50;4.90;;;9.90;99.90;;;;;;4928610;29;20853;-79
2022/09/23 07:57:01;;;;;;;13.77;5.37;;;10.00;99.90;;;;;;4929413;29;20744;-79
2022/09/23 07:59:28;;;;;;;4.50;4.10;;;10.20;99.90;;;;;;4928631;29;20463;-80
2022/09/23 08:01:57;;;;;;;5.40;4.43;;;10.40;99.90;;;;;;4928951;29;20577;-79
2022/09/23 08:04:27;;;;;;;6.60;4.60;;;10.50;99.90;;;;;;4928467;29;20466;-79
2022/09/23 08:06:56;;;;;;;5.00;4.20;;;10.60;99.90;;;;;;4929109;29;20470;-79
2022/09/23 08:09:25;;;;;;;4.40;4.00;;;10.70;99.90;;;;;;4929064;29;20557;-79
2022/09/23 08:11:52;;;;;;;5.33;4.30;;;10.90;99.90;;;;;;4928603;29;20487;-79
2022/09/23 08:14:21;;;;;;;4.60;3.80;;;11.10;99.90;;;;;;4928866;29;20708;-78
2022/09/23 08:16:47;;;;;;;3.67;3.37;;;11.30;99.90;;;;;;4929414;29;20478;-80
2022/09/23 08:19:16;;;;;;;4.47;4.07;;;11.40;99.90;;;;;;4929661;29;20465;-79
2022/09/23 08:21:46;;;;;;;3.43;3.00;;;11.50;99.90;;;;;;4929801;29;21021;-79
2022/09/23 08:24:15;;;;;;;6.60;3.70;;;11.60;99.90;;;;;;4929546;29;20553;-79
2022/09/23 08:26:42;;;;;;;5.17;4.67;;;11.70;99.90;;;;;;4929522;29;20494;-79
2022/09/23 08:29:09;;;;;;;6.20;3.80;;;11.90;99.90;;;;;;4929740;29;20461;-79
2022/09/23 08:31:36;;;;;;;3.90;3.50;;;12.10;99.90;;;;;;4944894;29;20482;-79
2022/09/23 08:34:03;;;;;;;4.67;4.17;;;12.10;99.90;;;;;;4948638;28;20512;-79
2022/09/23 08:36:31;;;;;;;4.17;3.50;;;12.30;99.90;;;;;;4948285;28;20979;-79
2022/09/23 08:38:58;;;;;;;3.33;3.03;;;12.50;99.90;;;;;;4948512;28;20457;-80
2022/09/23 08:41:32;;;;;;;3.87;3.53;;;12.60;99.90;;;;;;4947401;28;20609;-80
2022/09/23 08:44:04;;;;;;;4.03;3.20;;;12.70;99.90;;;;;;4947800;28;20458;-79
2022/09/23 08:46:37;;;;;;;5.63;3.57;;;12.90;99.90;;;;;;4948056;28;20481;-79
2022/09/23 08:49:06;;;;;;;3.40;3.10;;;13.10;99.90;;;;;;4947640;28;20454;-78
2022/09/23 08:51:41;;;;;;;3.90;3.30;;;13.60;99.90;;;;;;4947433;28;20878;-79
2022/09/23 08:54:10;;;;;;;3.47;3.17;;;13.70;99.90;;;;;;4947420;28;20548;-79
2022/09/23 08:56:38;;;;;;;3.80;3.03;;;14.00;99.90;;;;;;4947618;28;20458;-79
2022/09/23 08:59:10;;;;;;;2.83;2.53;;;14.20;99.90;;;;;;4950443;28;20949;-80
2022/09/23 09:01:43;;;;;;;4.53;3.03;;;14.30;99.90;;;;;;4949653;28;20870;-79
2022/09/23 09:04:17;;;;;;;3.20;2.90;;;14.50;99.90;;;;;;4949087;28;20461;-79
2022/09/23 09:06:51;;;;;;;3.30;3.00;;;14.70;99.90;;;;;;4949507;28;21031;-79
2022/09/23 09:09:23;;;;;;;3.17;2.87;;;14.70;99.90;;;;;;4949594;28;20459;-80
2022/09/23 09:11:54;;;;;;;3.30;3.00;;;14.80;99.90;;;;;;4949691;28;20485;-79
2022/09/23 09:14:25;;;;;;;3.20;2.90;;;14.90;99.90;;;;;;4949783;28;20473;-79
2022/09/23 09:17:01;;;;;;;2.97;2.73;;;15.00;99.90;;;;;;4950183;28;20464;-78
2022/09/23 09:19:52;;;;;;;2.80;2.60;;;15.30;99.90;;;;;;4950309;28;20568;-80
2022/09/23 09:22:27;;;;;;;3.47;3.03;;;15.30;99.90;;;;;;4950529;28;20544;-80
2022/09/23 09:24:58;;;;;;;4.10;3.10;;;15.40;99.90;;;;;;4950922;28;20445;-80
2022/09/23 09:27:25;;;;;;;3.43;2.57;;;15.80;99.90;;;;;;4952885;28;20468;-80
2022/09/23 09:29:54;;;;;;;3.40;2.90;;;16.00;99.90;;;;;;4951855;28;20461;-79
2022/09/23 09:32:32;;;;;;;2.87;2.57;;;16.20;99.90;;;;;;4950585;28;20485;-79
2022/09/23 09:35:05;;;;;;;2.60;2.40;;;16.40;99.90;;;;;;4952675;28;20974;-78
2022/09/23 09:37:39;;;;;;;3.50;2.73;;;16.40;99.90;;;;;;4951912;28;20445;-78
2022/09/23 09:40:08;;;;;;;4.03;2.90;;;16.40;99.90;;;;;;4952295;28;20494;-78
2022/09/23 09:42:39;;;;;;;3.90;2.70;;;16.40;99.90;;;;;;4952150;28;20482;-78
2022/09/23 09:45:18;;;;;;;3.63;2.60;;;16.50;99.90;;;;;;4952144;28;20449;-78
2022/09/23 09:47:51;;;;;;;2.87;2.60;;;16.60;99.90;;;;;;4951376;28;20464;-66
2022/09/23 09:50:39;;;;;;;4.60;2.97;;;16.60;99.90;;;;;;4950636;28;21281;-71
2022/09/23 09:53:22;;;;;;;3.07;2.50;;;16.70;99.90;;;;;;4950495;28;20492;-74
2022/09/23 09:56:02;;;;;;;2.80;2.43;;;16.80;99.90;;;;;;4951134;28;20469;-78
2022/09/23 09:58:41;;;;;;;3.17;2.70;;;16.70;99.90;;;;;;4953015;28;20906;-78
2022/09/23 10:01:08;;;;;;;6.53;2.60;;;16.70;99.90;;;;;;4951585;28;20488;-78
2022/09/23 10:03:40;;;;;;;3.77;2.70;;;16.70;99.90;;;;;;4951660;28;20844;-78
2022/09/23 10:06:16;;;;;;;4.43;2.87;;;16.90;99.90;;;;;;4951295;28;20481;-78
2022/09/23 10:09:08;;;;;;;3.77;2.90;;;17.10;99.90;;;;;;4951449;28;20500;-78
2022/09/23 10:11:35;;;;;;;3.47;2.90;;;17.10;99.90;;;;;;4951316;28;20851;-77
2022/09/23 10:14:05;;;;;;;8.30;3.40;;;17.20;99.90;;;;;;4950830;28;20461;-78
2022/09/23 10:16:34;;;;;;;3.40;3.10;;;17.30;99.90;;;;;;4953244;28;20815;-78
2022/09/23 10:19:03;;;;;;;5.57;3.80;;;17.40;99.90;;;;;;4953403;28;20457;-78
2022/09/23 10:21:36;;;;;;;2.90;2.60;;;17.40;99.90;;;;;;4952882;28;20490;-78
2022/09/23 10:24:07;;;;;;;3.37;3.07;;;17.30;99.90;;;;;;4949733;28;20457;-78
2022/09/23 10:26:47;;;;;;;5.57;3.00;;;17.30;99.90;;;;;;4952074;28;20533;-70
2022/09/23 10:29:23;;;;;;;4.93;3.23;;;17.40;99.90;;;;;;4951803;28;20838;-80
2022/09/23 10:31:52;;;;;;;3.60;2.67;;;17.50;99.90;;;;;;4954340;28;20492;-79
2022/09/23 10:34:26;;;;;;;5.30;3.03;;;17.60;99.90;;;;;;4952636;28;20537;-79
2022/09/23 10:36:55;;;;;;;4.77;3.73;;;17.80;99.90;;;;;;4955664;28;20500;-78
2022/09/23 10:48:12;;;;;;;3.20;2.90;;;18.20;99.90;;;;;;4956433;29;20421;-80
2022/09/23 10:50:43;;;;;;;4.20;3.20;;;18.20;99.90;;;;;;4955557;28;20481;-80
2022/09/23 10:53:19;;;;;;;3.93;3.40;;;18.30;99.90;;;;;;4956103;28;20485;-80
2022/09/23 10:56:06;;;;;;;4.57;2.83;;;18.60;99.90;;;;;;4958477;28;20456;-80
2022/09/23 10:58:59;;;;;;;6.63;3.47;;;18.80;99.90;;;;;;4957194;28;20524;-80
2022/09/23 11:01:35;;;;;;;4.67;3.30;;;18.90;99.90;;;;;;4954876;28;20969;-79
2022/09/23 11:05:01;;;;;;;4.10;3.03;;;18.90;99.90;;;;;;4938540;28;20952;-68
2022/09/23 11:07:34;;;;;;;5.30;3.37;;;19.50;99.90;;;;;;4888527;29;20504;-69
2022/09/23 11:10:34;;;;;;;7.47;3.17;;;20.20;99.90;;;;;;4906569;29;20894;-68
2022/09/23 11:13:10;;;;;;;3.77;3.00;;;20.70;99.90;;;;;;4910551;29;20989;-70
2022/09/23 11:15:51;;;;;;;4.60;3.13;;;20.60;99.90;;;;;;4909933;29;20458;-70
2022/09/23 11:18:34;;;;;;;5.80;3.20;;;20.50;99.90;;;;;;4911205;29;20436;-70
2022/09/23 11:21:11;;;;;;;4.77;2.70;;;20.80;99.90;;;;;;4911003;29;20495;-70
2022/09/23 11:24:11;;;;;;;3.40;3.10;;;20.90;99.90;;;;;;4910465;29;20462;-70
2022/09/23 11:26:45;;;;;;;4.70;3.30;;;21.10;99.90;;;;;;4910854;29;21325;-71
2022/09/23 11:29:29;;;;;;;4.47;2.80;;;21.60;99.90;;;;;;4910462;29;20458;-70
2022/09/23 11:32:08;;;;;;;3.20;2.90;;;21.80;99.90;;;;;;4930140;29;20484;-70
2022/09/23 11:34:58;;;;;;;3.50;3.03;;;21.80;99.90;;;;;;4954212;28;21384;-79
2022/09/23 11:37:28;;;;;;;3.43;2.90;;;21.50;99.90;;;;;;4959543;28;20458;-79
2022/09/23 11:40:01;;;;;;;7.47;2.93;;;21.70;99.90;;;;;;4958274;28;20450;-79
2022/09/23 11:42:33;;;;;;;3.00;2.53;;;22.10;99.90;;;;;;4956657;28;20488;-78
2022/09/23 11:45:08;;;;;;;3.30;2.60;;;22.60;99.90;;;;;;4955646;28;20446;-77
2022/09/23 11:47:41;;;;;;;4.70;2.67;;;22.60;99.90;;;;;;4952567;28;20493;-78
2022/09/23 11:50:19;;;;;;;5.97;3.33;;;22.40;99.90;;;;;;4954602;28;20476;-78
2022/09/23 11:52:51;;;;;;;4.90;2.70;;;22.30;99.90;;;;;;4954886;28;20469;-78
2022/09/23 11:55:23;;;;;;;4.47;2.50;;;22.20;99.90;;;;;;4953379;28;20450;-78
2022/09/23 11:57:53;;;;;;;3.83;2.33;;;22.30;99.90;;;;;;4952616;28;20457;-79
2022/09/23 12:00:23;;;;;;;5.43;2.73;;;22.30;99.90;;;;;;4952015;28;20544;-78
2022/09/23 12:03:03;;;;;;;5.20;3.00;;;22.30;99.90;;;;;;4951546;28;20449;-78
2022/09/23 12:05:34;;;;;;;4.50;2.90;;;22.40;99.90;;;;;;4950964;28;20465;-79
2022/09/23 12:08:08;;;;;;;4.63;2.80;;;23.00;99.90;;;;;;4952670;28;20523;-79
2022/09/23 12:10:45;;;;;;;3.50;2.40;;;23.00;99.90;;;;;;4951218;28;21379;-79
2022/09/23 12:13:21;;;;;;;5.40;2.87;;;23.60;99.90;;;;;;4950973;28;20437;-77
2022/09/23 12:16:08;;;;;;;5.23;2.30;;;23.80;99.90;;;;;;4950342;28;20996;-79
2022/09/23 12:18:49;;;;;;;6.17;3.30;;;23.80;99.90;;;;;;4952488;28;20449;-80
2022/09/23 12:21:30;;;;;;;7.03;2.70;;;23.70;99.90;;;;;;4951885;28;20481;-79
2022/09/23 12:24:15;;;;;;;7.03;2.60;;;23.60;99.90;;;;;;4950054;28;20459;-79
2022/09/23 12:26:44;;;;;;;3.87;2.87;;;23.50;99.90;;;;;;4951311;28;20486;-79
2022/09/23 12:29:14;;;;;;;5.70;2.97;;;23.50;99.90;;;;;;4951909;28;20461;-80
2022/09/23 12:31:43;;;;;;;3.90;2.77;;;23.40;99.90;;;;;;4951887;28;20519;-79
2022/09/23 12:34:22;;;;;;;4.37;2.80;;;23.60;99.90;;;;;;4950836;28;20469;-79
2022/09/23 12:36:49;;;;;;;3.97;2.80;;;23.80;99.90;;;;;;4951815;28;20446;-79
2022/09/23 12:39:27;;;;;;;4.93;3.73;;;23.90;99.90;;;;;;4949840;28;20468;-78
2022/09/23 12:41:57;;;;;;;4.00;3.00;;;23.80;99.90;;;;;;4950999;28;20481;-78
2022/09/23 12:44:35;;;;;;;4.50;3.10;;;23.70;99.90;;;;;;4949047;28;20912;-78
2022/09/23 12:47:37;;;;;;;3.50;2.60;;;23.70;99.90;;;;;;4949112;28;20499;-78
2022/09/23 12:50:51;;;;;;;4.77;2.90;;;23.90;99.90;;;;;;4950486;28;20452;-79
2022/09/23 12:53:58;;;;;;;8.20;2.50;;;24.10;99.90;;;;;;4949717;28;20489;-79
2022/09/23 12:56:28;;;;;;;5.10;2.70;;;23.90;99.90;;;;;;4949703;28;20445;-79
2022/09/23 12:59:26;;;;;;;5.20;2.60;;;24.30;99.90;;;;;;4956801;28;20445;-80
2022/09/23 13:01:54;;;;;;;3.77;2.77;;;24.30;99.90;;;;;;4933455;28;20504;-80
2022/09/23 13:07:23;;;;;;;4.10;2.40;;;24.00;99.90;;;;;;4956354;28;20484;-80
2022/09/23 13:09:52;;;;;;;4.50;2.50;;;23.90;99.90;;;;;;4956603;28;20504;-80
2022/09/23 13:12:24;;;;;;;3.93;2.10;;;23.60;99.90;;;;;;4956282;28;20485;-80
2022/09/23 13:14:54;;;;;;;4.37;2.80;;;23.90;99.90;;;;;;4955791;28;20473;-81
2022/09/23 13:17:30;;;;;;;4.80;2.80;;;24.00;99.90;;;;;;4957514;28;20461;-80
2022/09/23 13:20:05;;;;;;;2.80;2.33;;;23.80;99.90;;;;;;4957305;28;20453;-81
2022/09/23 13:22:57;;;;;;;3.20;2.23;;;23.80;99.90;;;;;;4956804;28;20480;-80
2022/09/23 13:25:26;;;;;;;5.60;2.40;;;23.90;99.90;;;;;;4955848;28;20525;-81
2022/09/23 13:27:55;;;;;;;4.23;2.43;;;23.70;99.90;;;;;;4956603;28;21038;-80
2022/09/23 13:30:25;;;;;;;8.57;2.50;;;23.50;99.90;;;;;;4957259;28;20464;-80
2022/09/23 13:33:01;;;;;;;5.10;2.90;;;23.40;99.90;;;;;;4957238;28;20457;-80
2022/09/23 13:35:34;;;;;;;5.63;3.23;;;23.40;99.90;;;;;;4957605;28;20453;-80
2022/09/23 13:38:10;;;;;;;4.63;2.67;;;23.40;99.90;;;;;;4957570;28;20441;-81
2022/09/23 13:40:39;;;;;;;5.80;2.67;;;23.40;99.90;;;;;;4957371;28;20485;-81
2022/09/23 13:43:12;;;;;;;6.37;3.13;;;23.60;99.90;;;;;;4957461;28;20457;-81
2022/09/23 13:45:42;;;;;;;5.53;2.70;;;23.60;99.90;;;;;;4957012;28;20946;-81
2022/09/23 13:48:12;;;;;;;6.27;2.83;;;23.90;99.90;;;;;;4957755;28;20497;-80
2022/09/23 13:50:45;;;;;;;4.97;2.83;;;23.60;99.90;;;;;;4958367;28;20477;-81
2022/09/23 13:53:17;;;;;;;4.97;2.80;;;23.30;99.90;;;;;;4957755;28;20450;-80
2022/09/23 13:55:43;;;;;;;6.40;3.10;;;23.30;99.90;;;;;;4956186;28;20457;-79
2022/09/23 13:58:17;;;;;;;12.60;3.67;;;23.20;99.90;;;;;;4957477;28;20456;-79
2022/09/23 14:00:44;;;;;;;4.33;2.97;;;23.10;99.90;;;;;;4956784;28;20497;-79
2022/09/23 14:03:23;;;;;;;3.63;2.73;;;23.00;99.90;;;;;;4956620;28;20453;-79
2022/09/23 14:05:52;;;;;;;4.53;3.33;;;23.10;99.90;;;;;;4956736;28;20487;-79
2022/09/23 14:08:19;;;;;;;7.57;3.20;;;23.10;99.90;;;;;;4957169;28;20875;-79
2022/09/23 14:10:47;;;;;;;7.23;3.13;;;23.00;99.90;;;;;;4953257;28;20487;-79
2022/09/23 14:13:20;;;;;;;5.53;2.53;;;22.90;99.90;;;;;;4954117;28;20457;-79
2022/09/23 14:15:48;;;;;;;4.80;2.60;;;22.90;99.90;;;;;;4953432;28;20934;-79
2022/09/23 14:18:18;;;;;;;5.40;3.37;;;22.90;99.90;;;;;;4953398;28;20453;-79
2022/09/23 14:20:46;;;;;;;6.33;3.27;;;22.80;99.90;;;;;;4953380;28;20500;-79
2022/09/23 14:23:15;;;;;;;3.30;2.50;;;22.80;99.90;;;;;;4953682;28;20465;-79
2022/09/23 14:25:43;;;;;;;8.10;3.27;;;22.60;99.90;;;;;;4952982;28;20462;-79
2022/09/23 14:28:14;;;;;;;4.47;3.33;;;22.50;99.90;;;;;;4953986;28;20555;-79
2022/09/23 14:30:44;;;;;;;3.70;3.00;;;22.40;99.90;;;;;;4954023;28;20584;-78
2022/09/23 14:33:16;;;;;;;3.77;3.00;;;22.30;99.90;;;;;;4954179;28;20561;-81
2022/09/23 14:35:46;;;;;;;4.43;2.87;;;22.20;99.90;;;;;;4953539;28;20449;-80
2022/09/23 14:41:16;;;;;;;5.63;3.23;;;22.20;99.90;;;;;;4953301;29;20516;-78
2022/09/23 14:43:48;;;;;;;5.50;3.80;;;22.20;99.90;;;;;;4953165;28;20529;-80
2022/09/23 14:46:18;;;;;;;3.67;3.17;;;22.20;99.90;;;;;;4953391;28;20497;-80
2022/09/23 14:48:54;;;;;;;9.27;3.80;;;22.20;99.90;;;;;;4953676;28;20508;-79
2022/09/23 14:51:21;;;;;;;6.23;3.93;;;22.10;99.90;;;;;;4951786;28;20536;-79
2022/09/23 14:53:49;;;;;;;4.43;2.80;;;22.20;99.90;;;;;;4951488;28;20461;-80
2022/09/23 14:56:20;;;;;;;5.43;3.07;;;22.40;99.90;;;;;;4950149;28;20461;-80
2022/09/23 14:58:51;;;;;;;3.00;2.70;;;22.50;99.90;;;;;;4951238;28;20901;-80
2022/09/23 15:01:26;;;;;;;4.83;2.77;;;22.70;99.90;;;;;;4950818;28;20497;-80
2022/09/23 15:03:54;;;;;;;4.87;2.90;;;22.90;99.90;;;;;;4950736;28;20465;-79
2022/09/23 15:06:22;;;;;;;4.47;2.40;;;22.80;99.90;;;;;;4950665;28;20867;-80
2022/09/23 15:08:52;;;;;;;3.10;2.80;;;22.70;99.90;;;;;;4950584;28;20519;-80
2022/09/23 15:11:19;;;;;;;3.27;2.93;;;22.70;99.90;;;;;;4951379;28;20484;-79
2022/09/23 15:13:49;;;;;;;5.80;3.27;;;22.80;99.90;;;;;;4951213;28;21043;-80
2022/09/23 15:16:24;;;;;;;4.30;3.20;;;22.80;99.90;;;;;;4950845;28;20520;-79
2022/09/23 15:18:54;;;;;;;6.87;3.20;;;22.80;99.90;;;;;;4950699;28;20441;-79
2022/09/23 15:21:22;;;;;;;4.83;2.83;;;22.80;99.90;;;;;;4950114;28;20947;-79
2022/09/23 15:23:52;;;;;;;7.67;3.23;;;22.80;99.90;;;;;;4950778;28;20469;-79
2022/09/23 15:26:21;;;;;;;7.00;3.30;;;22.70;99.90;;;;;;4950630;28;20457;-79
2022/09/23 15:28:49;;;;;;;4.60;3.00;;;22.60;99.90;;;;;;4952231;28;20492;-79
2022/09/23 15:31:17;;;;;;;6.07;3.20;;;22.60;99.90;;;;;;4951481;28;20493;-80
2022/09/23 15:33:46;;;;;;;5.20;2.70;;;22.50;99.90;;;;;;4950733;28;21389;-79
2022/09/23 15:36:17;;;;;;;3.70;2.70;;;22.40;99.90;;;;;;4950794;28;20465;-79
2022/09/23 15:38:44;;;;;;;3.13;2.83;;;22.30;99.90;;;;;;4951880;28;20452;-79
2022/09/23 15:41:13;;;;;;;4.63;3.10;;;22.30;99.90;;;;;;4950908;28;20517;-78
2022/09/23 15:43:41;;;;;;;4.23;2.70;;;22.20;99.90;;;;;;4950500;28;20500;-79
2022/09/23 15:46:12;;;;;;;8.70;2.80;;;22.10;99.90;;;;;;4949477;28;21005;-79
2022/09/23 15:48:42;;;;;;;3.80;2.90;;;22.00;99.90;;;;;;4950586;28;20485;-79
2022/09/23 15:51:13;;;;;;;5.00;3.10;;;21.90;99.90;;;;;;4950917;28;20486;-79
2022/09/23 15:53:39;;;;;;;5.33;3.10;;;21.70;99.90;;;;;;4950519;28;20453;-79
2022/09/23 15:56:06;;;;;;;4.00;3.23;;;21.70;99.90;;;;;;4949780;28;20462;-79
2022/09/23 15:58:34;;;;;;;4.90;3.07;;;21.50;99.90;;;;;;4950851;28;20874;-79
2022/09/23 16:01:01;;;;;;;5.37;3.33;;;21.40;99.90;;;;;;4952912;28;20484;-79
2022/09/23 16:03:28;;;;;;;4.70;3.30;;;21.40;99.90;;;;;;4956781;28;20454;-80
2022/09/23 16:05:56;;;;;;;3.50;2.97;;;21.20;99.90;;;;;;4954851;28;20843;-80
2022/09/23 16:08:24;;;;;;;5.07;2.80;;;21.20;99.90;;;;;;4951285;28;20556;-80
2022/09/23 16:10:52;;;;;;;5.00;3.10;;;21.10;99.90;;;;;;4951635;28;20481;-79
2022/09/23 16:13:19;;;;;;;4.97;3.40;;;20.90;99.90;;;;;;4951348;28;20465;-80
2022/09/23 16:15:47;;;;;;;4.30;3.60;;;20.80;99.90;;;;;;4951516;28;20469;-79
2022/09/23 16:18:14;;;;;;;4.72;3.20;;;20.70;99.90;;;;;;4950363;28;20450;-81
2022/09/23 16:20:43;;;;;;;4.10;3.57;;;20.70;99.90;;;;;;4951552;28;20233;-81
2022/09/23 16:23:32;;;;;;;4.60;3.40;;;20.80;99.90;;;;;;4951499;28;20512;-80
2022/09/23 16:26:13;;;;;;;3.70;2.90;;;20.70;99.90;;;;;;4948481;28;20469;-79
2022/09/23 16:28:40;;;;;;;6.00;2.83;;;20.60;99.90;;;;;;4949461;28;20508;-80
2022/09/23 16:31:09;;;;;;;3.70;3.10;;;20.50;99.90;;;;;;4948216;28;20538;-79
2022/09/23 16:33:36;;;;;;;3.83;3.00;;;20.40;99.90;;;;;;4947718;28;21530;-79
2022/09/23 16:36:04;;;;;;;4.50;3.00;;;20.30;99.90;;;;;;4946668;28;21008;-77
2022/09/23 16:38:31;;;;;;;6.27;3.13;;;20.30;99.90;;;;;;4948558;28;20469;-79
2022/09/23 16:40:59;;;;;;;4.80;3.00;;;20.20;99.90;;;;;;4948776;28;20544;-79
2022/09/23 16:43:30;;;;;;;4.10;3.07;;;20.10;99.90;;;;;;4948654;28;20462;-79
2022/09/23 16:45:59;;;;;;;3.40;2.73;;;20.00;99.90;;;;;;4949568;28;20453;-79
2022/09/23 16:48:28;;;;;;;6.20;2.90;;;20.00;99.90;;;;;;4958837;28;20871;-80
2022/09/23 16:50:54;;;;;;;4.13;3.33;;;19.90;99.90;;;;;;4950527;28;20497;-80
2022/09/23 16:53:22;;;;;;;7.70;4.00;;;19.80;99.90;;;;;;4951594;28;20465;-80
2022/09/23 16:55:48;;;;;;;9.57;6.60;;;19.80;99.90;;;;;;4951537;28;20477;-80
2022/09/23 16:58:15;;;;;;;8.33;7.47;;;19.70;99.90;;;;;;4951588;28;20468;-80
2022/09/23 17:03:39;;;;;;;8.00;5.17;;;19.60;99.90;;;;;;4951228;29;20425;-80
2022/09/23 17:06:06;;;;;;;5.90;3.70;;;19.50;99.90;;;;;;4950878;28;20503;-80
2022/09/23 17:08:33;;;;;;;4.90;3.37;;;19.40;99.90;;;;;;4951566;28;20538;-80
2022/09/23 17:11:01;;;;;;;5.00;3.37;;;19.40;99.90;;;;;;4951499;28;20481;-80
2022/09/23 17:13:29;;;;;;;4.93;3.03;;;19.30;99.90;;;;;;4953567;28;20591;-79
2022/09/23 17:15:56;;;;;;;4.40;3.10;;;19.30;99.90;;;;;;4953172;28;20479;-79
2022/09/23 17:18:23;;;;;;;3.80;3.00;;;19.10;99.90;;;;;;4953310;28;20861;-79
2022/09/23 17:21:02;;;;;;;3.70;3.40;;;19.00;99.90;;;;;;4949389;28;21024;-79
2022/09/23 17:23:30;;;;;;;4.20;2.90;;;19.00;99.90;;;;;;4953363;28;20628;-79
2022/09/23 17:25:58;;;;;;;5.40;4.10;;;18.90;99.90;;;;;;4952275;28;20831;-79
2022/09/23 17:28:25;;;;;;;4.97;3.50;;;18.80;99.90;;;;;;4953262;28;20492;-80